Time;durP1;ratioP1;P1;durP2;ratioP2;P2;SDS_P1;SDS_P2;PMS_P1;PMS_P2;Temp;Humidity;BMP_temperature;BMP_pressure;BME280_temperature;BME280_humidity;BME280_pressure;Samples;Min_cycle;Max_cycle;Signal;HPM_P1;HPM_P2
2023/04/22 04:02:56;;;;;;;0.60;0.10;;;13.60;99.90;;;;;;4909008;29;20961;-72
2023/04/22 04:05:24;;;;;;;0.80;0.50;;;13.50;99.90;;;;;;4918178;29;20460;-73
2023/04/22 04:07:53;;;;;;;0.60;0.10;;;10.60;99.90;;;;;;4918057;29;20488;-72
2023/04/22 04:10:21;;;;;;;0.60;0.10;;;13.40;99.90;;;;;;4917986;29;20479;-71
2023/04/22 04:12:48;;;;;;;0.60;0.10;;;13.40;99.90;;;;;;4918034;29;20499;-73
2023/04/22 04:15:17;;;;;;;0.60;0.10;;;13.40;99.90;;;;;;4913466;29;20533;-72
2023/04/22 04:17:46;;;;;;;0.60;0.10;;;13.30;99.90;;;;;;4917385;29;20858;-72
2023/04/22 04:20:16;;;;;;;0.80;0.43;;;13.30;99.90;;;;;;4917291;29;20470;-72
2023/04/22 04:22:44;;;;;;;0.60;0.10;;;13.30;99.90;;;;;;4917190;29;21026;-71
2023/04/22 04:25:12;;;;;;;1.63;1.53;;;13.30;99.90;;;;;;4917280;29;20459;-73
2023/04/22 04:27:40;;;;;;;0.70;0.57;;;13.20;99.90;;;;;;4917387;29;20529;-71
2023/04/22 04:30:09;;;;;;;0.60;0.10;;;;;;;;;;4917570;29;20493;-72
2023/04/22 04:32:37;;;;;;;0.60;0.20;;;13.20;99.90;;;;;;4914885;29;20484;-72
2023/04/22 04:35:07;;;;;;;0.60;0.10;;;13.10;99.90;;;;;;4914227;29;20459;-72
2023/04/22 04:37:39;;;;;;;0.77;0.77;;;13.10;99.90;;;;;;4917485;29;20443;-72
2023/04/22 04:40:09;;;;;;;0.60;0.10;;;13.20;99.90;;;;;;4917453;29;20487;-72
2023/04/22 04:42:37;;;;;;;0.60;0.13;;;13.20;99.90;;;;;;4917336;29;20471;-72
2023/04/22 04:45:06;;;;;;;0.60;0.20;;;13.20;99.90;;;;;;4917134;29;20474;-73
2023/04/22 04:47:34;;;;;;;0.60;0.10;;;13.20;99.90;;;;;;4917039;29;20538;-72
2023/04/22 04:50:03;;;;;;;0.60;0.30;;;13.10;99.90;;;;;;4917440;29;20453;-72
2023/04/22 04:52:31;;;;;;;0.60;0.10;;;13.20;99.90;;;;;;4925209;29;20470;-72
2023/04/22 04:55:00;;;;;;;0.60;0.10;;;13.20;99.90;;;;;;4916494;29;20465;-72
2023/04/22 04:57:28;;;;;;;0.60;0.10;;;13.20;99.90;;;;;;4919576;29;20465;-72
2023/04/22 04:59:56;;;;;;;0.60;0.10;;;13.20;99.90;;;;;;4917985;29;20978;-73
2023/04/22 05:02:24;;;;;;;0.60;0.10;;;13.30;99.90;;;;;;4916444;29;20494;-73
2023/04/22 05:04:52;;;;;;;0.60;0.10;;;13.40;99.90;;;;;;4916800;29;20938;-73
2023/04/22 05:07:20;;;;;;;0.60;0.10;;;13.40;99.90;;;;;;4932314;29;20551;-73
2023/04/22 05:09:48;;;;;;;0.60;0.10;;;13.40;99.90;;;;;;4935852;29;20866;-72
2023/04/22 05:12:17;;;;;;;0.60;0.10;;;13.50;99.90;;;;;;4935960;29;20475;-72
2023/04/22 05:14:45;;;;;;;0.60;0.10;;;13.40;99.90;;;;;;4923612;29;20461;-73
2023/04/22 05:17:14;;;;;;;0.60;0.10;;;13.40;99.90;;;;;;4916840;29;21007;-72
2023/04/22 05:19:41;;;;;;;0.60;0.10;;;13.50;99.90;;;;;;4917110;29;20947;-73
2023/04/22 05:22:09;;;;;;;0.60;0.10;;;13.60;99.90;;;;;;4916661;29;20480;-72
2023/04/22 05:24:37;;;;;;;0.60;0.10;;;13.60;99.90;;;;;;4916529;29;20456;-73
2023/04/22 05:27:05;;;;;;;0.60;0.10;;;13.60;99.90;;;;;;4917610;29;20485;-72
2023/04/22 05:29:34;;;;;;;0.60;0.10;;;13.60;99.90;;;;;;4916539;29;20482;-73
2023/04/22 05:32:02;;;;;;;0.60;0.10;;;13.50;99.90;;;;;;4916442;29;20474;-72
2023/04/22 05:34:30;;;;;;;0.60;0.10;;;13.60;99.90;;;;;;4916151;29;20450;-73
2023/04/22 05:36:58;;;;;;;0.60;0.10;;;13.60;99.90;;;;;;4916756;29;20456;-72
2023/04/22 05:39:26;;;;;;;0.60;0.10;;;13.60;99.90;;;;;;4916860;29;20577;-73
2023/04/22 05:41:54;;;;;;;0.60;0.10;;;13.60;99.90;;;;;;4916408;29;20506;-72
2023/04/22 05:44:21;;;;;;;0.60;0.10;;;13.60;99.90;;;;;;4916133;29;20941;-73
2023/04/22 05:46:51;;;;;;;0.60;0.20;;;13.60;99.90;;;;;;4916553;29;20459;-73
2023/04/22 05:49:18;;;;;;;0.60;0.10;;;13.60;99.90;;;;;;4916334;29;20491;-73
2023/04/22 05:51:46;;;;;;;0.60;0.10;;;13.70;99.90;;;;;;4918327;29;20508;-74
2023/04/22 05:54:14;;;;;;;0.60;0.10;;;13.80;99.90;;;;;;4935039;29;20874;-73
2023/04/22 05:56:42;;;;;;;0.60;0.10;;;13.80;99.90;;;;;;4934810;29;20948;-72
2023/04/22 05:59:10;;;;;;;0.60;0.10;;;13.80;99.90;;;;;;4935153;29;20454;-73
2023/04/22 06:01:37;;;;;;;0.60;0.10;;;13.80;99.90;;;;;;4935142;29;20998;-73
2023/04/22 06:04:08;;;;;;;0.60;0.10;;;13.90;99.90;;;;;;4935233;29;20458;-72
2023/04/22 06:06:37;;;;;;;2.03;1.93;;;14.00;99.90;;;;;;4935429;29;20455;-73
2023/04/22 06:09:05;;;;;;;0.60;0.10;;;14.10;99.90;;;;;;4935793;29;20601;-74
2023/04/22 06:11:33;;;;;;;0.60;0.10;;;14.10;99.90;;;;;;4935243;29;20844;-73
2023/04/22 06:14:01;;;;;;;0.60;0.10;;;14.10;99.90;;;;;;4930360;29;20456;-74
2023/04/22 06:16:30;;;;;;;0.60;0.20;;;14.10;99.90;;;;;;4917666;29;20471;-72
2023/04/22 06:18:58;;;;;;;0.60;0.10;;;14.10;99.90;;;;;;4917871;29;20874;-73
2023/04/22 06:21:27;;;;;;;0.60;0.10;;;14.20;99.90;;;;;;4917077;29;20473;-74
2023/04/22 06:23:55;;;;;;;0.60;0.10;;;14.10;99.90;;;;;;4917559;29;20827;-73
2023/04/22 06:26:23;;;;;;;0.60;0.20;;;14.10;99.90;;;;;;4917680;29;20450;-73
2023/04/22 06:28:51;;;;;;;0.60;0.10;;;14.20;99.90;;;;;;4920395;29;20489;-74
2023/04/22 06:31:19;;;;;;;0.60;0.10;;;14.20;99.90;;;;;;4922312;29;20495;-73
2023/04/22 06:33:48;;;;;;;0.60;0.10;;;14.20;99.90;;;;;;4922165;29;20599;-73
2023/04/22 06:36:15;;;;;;;0.60;0.10;;;14.20;99.90;;;;;;4939940;29;20987;-72
2023/04/22 06:38:45;;;;;;;0.60;0.10;;;14.20;99.90;;;;;;4940777;29;20630;-73
2023/04/22 06:41:13;;;;;;;0.60;0.10;;;14.20;99.90;;;;;;4940470;29;20471;-73
2023/04/22 06:43:41;;;;;;;0.60;0.10;;;14.20;99.90;;;;;;4939767;29;20487;-73
2023/04/22 06:46:09;;;;;;;0.60;0.10;;;14.30;99.90;;;;;;4936043;29;20464;-72
2023/04/22 06:48:36;;;;;;;1.17;1.07;;;14.40;99.90;;;;;;4918600;29;20489;-72
2023/04/22 06:51:05;;;;;;;0.60;0.20;;;14.50;99.90;;;;;;4920102;29;20512;-74
2023/04/22 06:53:32;;;;;;;0.60;0.20;;;14.50;99.90;;;;;;4920552;29;20452;-73
2023/04/22 06:56:02;;;;;;;0.60;0.10;;;14.50;99.90;;;;;;4919866;29;20500;-73
2023/04/22 06:58:29;;;;;;;0.60;0.20;;;14.60;99.90;;;;;;4925923;29;20456;-74
2023/04/22 07:00:57;;;;;;;0.60;0.10;;;14.60;99.90;;;;;;4937451;29;20486;-73
2023/04/22 07:03:26;;;;;;;0.60;0.10;;;14.70;99.90;;;;;;4936882;29;20480;-72
2023/04/22 07:05:54;;;;;;;0.60;0.10;;;14.70;99.90;;;;;;4937550;29;20546;-73
2023/04/22 07:08:22;;;;;;;0.60;0.10;;;14.80;99.90;;;;;;4937701;29;20458;-73
2023/04/22 07:10:50;;;;;;;0.60;0.10;;;14.80;99.90;;;;;;4937109;29;20487;-73
2023/04/22 07:13:19;;;;;;;0.60;0.10;;;14.90;99.90;;;;;;4937007;29;20956;-72
2023/04/22 07:15:47;;;;;;;0.60;0.10;;;14.80;99.90;;;;;;4936927;29;20444;-73
2023/04/22 07:18:15;;;;;;;0.70;0.30;;;14.90;99.90;;;;;;4936047;29;20445;-74
2023/04/22 07:20:42;;;;;;;0.60;0.20;;;14.90;99.90;;;;;;4936308;29;20849;-73
2023/04/22 07:23:10;;;;;;;0.60;0.10;;;14.90;99.90;;;;;;4937199;29;20453;-73
2023/04/22 07:25:38;;;;;;;0.60;0.10;;;15.00;99.90;;;;;;4940267;29;20779;-73
2023/04/22 07:28:06;;;;;;;0.60;0.10;;;15.00;99.90;;;;;;4941869;29;20459;-73
2023/04/22 07:30:35;;;;;;;2.00;1.53;;;15.10;99.90;;;;;;4928428;29;20852;-73
2023/04/22 07:33:03;;;;;;;0.60;0.10;;;15.20;99.90;;;;;;4921999;29;20465;-73
2023/04/22 07:35:31;;;;;;;0.60;0.10;;;15.30;99.90;;;;;;4916947;29;20479;-74
2023/04/22 07:37:59;;;;;;;0.60;0.13;;;15.30;99.90;;;;;;4918035;29;20460;-73
2023/04/22 07:40:27;;;;;;;2.30;2.13;;;;;;;;;;4937972;29;20545;-73
2023/04/22 07:42:55;;;;;;;0.60;0.20;;;15.30;99.90;;;;;;4938225;29;20455;-73
2023/04/22 07:45:23;;;;;;;0.60;0.10;;;15.30;99.90;;;;;;4938174;29;20452;-73
2023/04/22 07:47:52;;;;;;;0.60;0.20;;;15.40;99.90;;;;;;4937666;29;20511;-73
2023/04/22 07:50:20;;;;;;;0.60;0.10;;;15.40;99.90;;;;;;4938583;29;20477;-73
2023/04/22 07:52:48;;;;;;;0.60;0.17;;;15.60;99.90;;;;;;4937992;29;20482;-73
2023/04/22 07:55:16;;;;;;;0.60;0.10;;;15.60;99.90;;;;;;4937980;29;20937;-72
2023/04/22 07:57:44;;;;;;;0.60;0.10;;;15.70;99.90;;;;;;4935183;29;20954;-73
2023/04/22 08:00:13;;;;;;;0.60;0.10;;;15.70;99.90;;;;;;4918549;29;20444;-73
2023/04/22 08:02:42;;;;;;;0.60;0.10;;;15.90;99.90;;;;;;4935836;29;20532;-73
2023/04/22 08:05:13;;;;;;;0.60;0.10;;;15.90;99.90;;;;;;4936982;29;20456;-74
2023/04/22 08:07:41;;;;;;;0.60;0.10;;;;;;;;;;4937875;29;20534;-73
2023/04/22 08:10:10;;;;;;;0.60;0.10;;;16.10;99.90;;;;;;4937455;29;20502;-71
2023/04/22 08:12:38;;;;;;;0.60;0.10;;;16.10;99.90;;;;;;4935121;29;20485;-74
2023/04/22 08:15:06;;;;;;;0.60;0.10;;;16.20;99.90;;;;;;4921355;29;20461;-72
2023/04/22 08:17:34;;;;;;;0.70;0.30;;;16.30;99.90;;;;;;4919590;29;20470;-74
2023/04/22 08:20:03;;;;;;;0.60;0.10;;;16.30;99.90;;;;;;4908709;29;20446;-74
2023/04/22 08:22:37;;;;;;;0.60;0.10;;;16.40;99.90;;;;;;4915873;29;20489;-75
2023/04/22 08:25:07;;;;;;;0.60;0.20;;;16.50;99.90;;;;;;4916039;29;20815;-75
2023/04/22 08:27:35;;;;;;;0.60;0.10;;;16.50;99.90;;;;;;4922183;29;20450;-75
2023/04/22 08:30:03;;;;;;;0.60;0.10;;;16.50;99.90;;;;;;4932373;29;20513;-76
2023/04/22 08:32:31;;;;;;;0.60;0.20;;;16.60;99.90;;;;;;4918256;29;20487;-75
2023/04/22 08:34:58;;;;;;;0.60;0.10;;;16.70;99.90;;;;;;4918139;29;20460;-74
2023/04/22 08:37:32;;;;;;;0.60;0.10;;;16.70;99.90;;;;;;4918958;29;20932;-75
2023/04/22 08:40:03;;;;;;;0.60;0.10;;;16.80;99.90;;;;;;4917400;29;20486;-74
2023/04/22 08:42:31;;;;;;;0.60;0.10;;;16.90;99.90;;;;;;4919071;29;21018;-75
2023/04/22 08:45:02;;;;;;;0.60;0.10;;;16.90;99.90;;;;;;4916408;29;20496;-73
2023/04/22 08:47:31;;;;;;;0.60;0.10;;;16.90;99.90;;;;;;4917143;29;20482;-74
2023/04/22 08:50:03;;;;;;;0.60;0.10;;;16.90;99.90;;;;;;4920047;29;20492;-74
2023/04/22 08:52:31;;;;;;;0.60;0.20;;;17.00;99.90;;;;;;4919506;29;20475;-74
2023/04/22 08:55:00;;;;;;;0.60;0.10;;;17.00;99.90;;;;;;4912582;29;20855;-75
2023/04/22 08:57:30;;;;;;;0.60;0.10;;;17.10;99.90;;;;;;4921146;29;20461;-76
2023/04/22 08:59:58;;;;;;;0.60;0.10;;;17.20;99.90;;;;;;4922726;29;20463;-73
2023/04/22 09:02:28;;;;;;;0.60;0.10;;;17.30;99.90;;;;;;4921139;29;20479;-74
2023/04/22 09:04:57;;;;;;;0.60;0.10;;;17.30;99.90;;;;;;4921895;29;20457;-74
2023/04/22 09:07:28;;;;;;;0.60;0.10;;;17.50;99.90;;;;;;4930274;29;20463;-74
2023/04/22 09:09:56;;;;;;;0.60;0.10;;;17.50;99.90;;;;;;4935138;29;20525;-73
2023/04/22 09:12:25;;;;;;;0.60;0.10;;;17.80;99.90;;;;;;4920547;29;20855;-75
2023/04/22 09:14:55;;;;;;;0.60;0.10;;;17.80;99.90;;;;;;4919648;29;20539;-73
2023/04/22 09:17:31;;;;;;;0.60;0.10;;;17.90;99.90;;;;;;4910334;29;20449;-75
2023/04/22 09:20:01;;;;;;;0.60;0.10;;;18.00;99.90;;;;;;4917405;29;20504;-73
2023/04/22 09:22:36;;;;;;;0.60;0.10;;;18.10;99.90;;;;;;4919757;29;20848;-74
2023/04/22 09:25:05;;;;;;;0.60;0.13;;;18.20;99.90;;;;;;4913091;29;20464;-74
2023/04/22 09:27:35;;;;;;;0.60;0.10;;;18.30;99.90;;;;;;4916499;29;20520;-74
2023/04/22 09:30:09;;;;;;;0.80;0.40;;;18.40;99.90;;;;;;4917945;29;20457;-74
2023/04/22 09:32:36;;;;;;;0.60;0.10;;;18.40;99.90;;;;;;4917366;29;20499;-74
2023/04/22 09:35:06;;;;;;;0.60;0.10;;;18.50;99.90;;;;;;4920154;29;20860;-73
2023/04/22 09:37:33;;;;;;;0.60;0.10;;;18.50;99.90;;;;;;4913851;29;20452;-73
2023/04/22 09:40:15;;;;;;;4.67;2.30;;;18.60;99.90;;;;;;4922021;29;20436;-73
2023/04/22 09:42:48;;;;;;;0.60;0.13;;;18.70;99.90;;;;;;4918577;29;20490;-74
2023/04/22 09:45:30;;;;;;;0.60;0.10;;;18.80;99.90;;;;;;4917978;29;20448;-73
2023/04/22 09:48:02;;;;;;;0.60;0.10;;;18.80;99.90;;;;;;4903359;29;20454;-74
2023/04/22 09:50:30;;;;;;;0.60;0.20;;;18.90;99.90;;;;;;4914688;29;20484;-73
2023/04/22 09:53:00;;;;;;;0.60;0.10;;;18.90;99.90;;;;;;4898947;29;20508;-73
2023/04/22 09:55:30;;;;;;;0.60;0.10;;;19.00;99.90;;;;;;4920077;29;20516;-75
2023/04/22 09:58:04;;;;;;;0.60;0.20;;;19.20;99.90;;;;;;4933729;29;20947;-72
2023/04/22 10:00:36;;;;;;;0.60;0.10;;;19.30;99.90;;;;;;4912526;29;20472;-76
2023/04/22 10:03:05;;;;;;;0.60;0.10;;;19.40;99.90;;;;;;4912266;29;20468;-73
2023/04/22 10:05:37;;;;;;;0.60;0.20;;;19.60;99.90;;;;;;4910500;29;20556;-74
2023/04/22 10:08:05;;;;;;;0.60;0.10;;;19.60;99.90;;;;;;4912021;29;20521;-74
2023/04/22 10:10:33;;;;;;;0.60;0.20;;;19.70;99.90;;;;;;4915818;29;20495;-73
2023/04/22 10:13:03;;;;;;;0.60;0.10;;;19.70;99.90;;;;;;4915729;29;20460;-74
2023/04/22 10:15:34;;;;;;;0.60;0.10;;;19.80;99.90;;;;;;4916797;29;20839;-75
2023/04/22 10:18:05;;;;;;;0.60;0.10;;;19.90;99.90;;;;;;4918784;29;20448;-74
2023/04/22 10:20:37;;;;;;;0.60;0.10;;;20.10;99.90;;;;;;4916811;29;20477;-74
2023/04/22 10:23:06;;;;;;;0.70;0.70;;;20.10;99.90;;;;;;4917475;29;20914;-74
2023/04/22 10:25:34;;;;;;;0.60;0.10;;;20.10;99.90;;;;;;4905502;29;20829;-74
2023/04/22 10:28:04;;;;;;;0.60;0.10;;;20.20;99.90;;;;;;4915767;29;20947;-74
2023/04/22 10:30:35;;;;;;;0.60;0.20;;;20.20;99.90;;;;;;4916265;29;20453;-74
2023/04/22 10:33:38;;;;;;;0.73;0.40;;;20.30;99.90;;;;;;4917577;29;20693;-73
2023/04/22 10:36:08;;;;;;;0.60;0.10;;;20.30;99.90;;;;;;4918251;29;20451;-74
2023/04/22 10:38:36;;;;;;;0.60;0.10;;;20.40;99.90;;;;;;4917989;29;20452;-75
2023/04/22 10:41:04;;;;;;;0.60;0.10;;;20.50;99.90;;;;;;4920401;29;21538;-73
2023/04/22 10:43:43;;;;;;;0.60;0.20;;;20.60;99.90;;;;;;4919606;29;20825;-75
2023/04/22 10:46:44;;;;;;;0.60;0.10;;;20.70;99.90;;;;;;4923419;29;20947;-73
2023/04/22 10:49:17;;;;;;;0.60;0.10;;;20.80;99.90;;;;;;4918367;29;20981;-74
2023/04/22 10:51:47;;;;;;;0.60;0.10;;;20.90;99.90;;;;;;4917534;29;20508;-75
2023/04/22 10:54:48;;;;;;;0.60;0.10;;;20.90;99.90;;;;;;4918109;29;20473;-74
2023/04/22 10:57:21;;;;;;;0.60;0.10;;;21.00;99.90;;;;;;4919122;29;20437;-74
2023/04/22 10:59:52;;;;;;;0.60;0.10;;;21.20;99.90;;;;;;4919071;29;20470;-74
2023/04/22 11:02:22;;;;;;;0.60;0.10;;;21.20;99.90;;;;;;4914891;29;20476;-74
2023/04/22 11:04:53;;;;;;;0.60;0.10;;;21.20;99.90;;;;;;4919860;29;20957;-73
2023/04/22 11:07:33;;;;;;;0.60;0.10;;;21.30;99.90;;;;;;4917902;29;20483;-75
2023/04/22 11:10:04;;;;;;;0.60;0.10;;;21.50;99.90;;;;;;4925430;29;20450;-72
2023/04/22 11:12:45;;;;;;;0.60;0.10;;;21.60;99.90;;;;;;4919300;29;20829;-73
2023/04/22 11:15:14;;;;;;;0.60;0.10;;;21.60;99.90;;;;;;4904636;29;21008;-73
2023/04/22 11:17:43;;;;;;;0.60;0.20;;;21.90;99.90;;;;;;4922091;29;20465;-73
2023/04/22 11:20:16;;;;;;;0.60;0.10;;;22.00;99.90;;;;;;4914832;29;20565;-74
2023/04/22 11:22:46;;;;;;;0.60;0.10;;;22.00;99.90;;;;;;4923877;29;20470;-72
2023/04/22 11:25:14;;;;;;;0.60;0.13;;;;;;;;;;4904241;29;20458;-73
2023/04/22 11:27:43;;;;;;;0.80;0.30;;;21.90;99.90;;;;;;4902287;29;20450;-72
2023/04/22 11:30:13;;;;;;;0.60;0.10;;;22.10;99.90;;;;;;4934747;29;20949;-74
2023/04/22 11:32:43;;;;;;;0.60;0.10;;;22.10;99.90;;;;;;4941028;29;20496;-72
2023/04/22 11:35:15;;;;;;;0.60;0.20;;;22.20;99.90;;;;;;4920469;29;20460;-72
2023/04/22 11:37:44;;;;;;;0.63;0.20;;;22.20;99.90;;;;;;4919072;29;20451;-73
2023/04/22 11:40:14;;;;;;;0.60;0.20;;;22.20;99.90;;;;;;4920391;29;20466;-71
2023/04/22 11:42:58;;;;;;;0.60;0.10;;;22.20;99.90;;;;;;4913643;29;20803;-72
2023/04/22 11:45:26;;;;;;;0.60;0.10;;;22.30;99.90;;;;;;4918119;29;20458;-72
2023/04/22 11:47:55;;;;;;;1.73;0.67;;;22.40;99.90;;;;;;4916212;29;20818;-72
2023/04/22 11:50:26;;;;;;;1.90;0.53;;;22.20;99.90;;;;;;4916597;29;20505;-72
2023/04/22 11:52:55;;;;;;;0.60;0.10;;;22.20;99.90;;;;;;4916170;29;20496;-74
2023/04/22 11:55:26;;;;;;;0.60;0.10;;;22.30;99.90;;;;;;4917246;29;20491;-72
2023/04/22 11:57:55;;;;;;;0.70;0.20;;;22.30;99.90;;;;;;4914541;29;20943;-73
2023/04/22 12:00:25;;;;;;;0.60;0.10;;;22.40;99.90;;;;;;4913069;29;20455;-73
2023/04/22 12:02:58;;;;;;;0.60;0.10;;;22.40;99.90;;;;;;4918707;29;20510;-72
2023/04/22 12:05:35;;;;;;;1.27;0.60;;;22.30;99.90;;;;;;4917248;29;20473;-72
2023/04/22 12:08:04;;;;;;;0.60;0.10;;;22.40;99.90;;;;;;4926475;29;20459;-72
2023/04/22 12:10:32;;;;;;;0.63;0.17;;;22.50;99.90;;;;;;4919727;29;20528;-72
2023/04/22 12:13:01;;;;;;;0.60;0.20;;;22.60;99.90;;;;;;4912894;29;20891;-77
2023/04/22 12:15:41;;;;;;;0.70;0.20;;;22.60;99.90;;;;;;4925276;29;20453;-76
2023/04/22 12:18:11;;;;;;;0.60;0.10;;;22.70;99.90;;;;;;4910271;29;20451;-76
2023/04/22 12:20:42;;;;;;;0.77;0.20;;;22.80;99.90;;;;;;4914040;29;20866;-77
2023/04/22 12:23:16;;;;;;;0.60;0.10;;;22.90;99.90;;;;;;4916456;29;20470;-74
2023/04/22 12:25:44;;;;;;;0.70;0.20;;;22.80;99.90;;;;;;4918232;29;20849;-71
2023/04/22 12:28:13;;;;;;;0.80;0.30;;;;;;;;;;4916982;29;20806;-68
2023/04/22 12:30:41;;;;;;;1.23;0.43;;;22.60;99.90;;;;;;4920735;29;20538;-68
2023/04/22 12:33:09;;;;;;;0.90;0.47;;;22.40;99.90;;;;;;4918610;29;20494;-70
2023/04/22 12:35:37;;;;;;;0.67;0.20;;;22.20;99.90;;;;;;4919057;29;20972;-71
2023/04/22 12:38:06;;;;;;;1.37;0.33;;;22.30;99.90;;;;;;4918881;29;20792;-72
2023/04/22 12:40:34;;;;;;;0.80;0.30;;;22.30;99.90;;;;;;4924050;29;20456;-74
2023/04/22 12:43:04;;;;;;;0.90;0.63;;;22.30;99.90;;;;;;4923171;29;20513;-75
2023/04/22 12:45:32;;;;;;;0.60;0.10;;;22.30;99.90;;;;;;4920193;29;20445;-76
2023/04/22 12:48:01;;;;;;;0.60;0.10;;;;;;;;;;4918974;29;20462;-76
2023/04/22 12:50:29;;;;;;;0.70;0.30;;;;;;;;;;4922587;29;20521;-75
2023/04/22 12:52:57;;;;;;;0.60;0.10;;;22.60;98.90;;;;;;4938239;29;20482;-78
2023/04/22 12:55:26;;;;;;;1.80;1.70;;;22.60;98.40;;;;;;4940095;29;20458;-77
2023/04/22 12:57:55;;;;;;;0.70;0.30;;;22.50;96.00;;;;;;4939140;29;20461;-70
2023/04/22 13:00:24;;;;;;;0.70;0.30;;;22.40;98.50;;;;;;4937528;29;20961;-72
2023/04/22 13:02:52;;;;;;;0.60;0.20;;;22.50;98.30;;;;;;4928880;29;20556;-71
2023/04/22 13:05:20;;;;;;;0.63;0.20;;;22.50;98.50;;;;;;4917289;29;20546;-71
2023/04/22 13:07:48;;;;;;;0.60;0.20;;;22.50;98.00;;;;;;4916841;29;20456;-71
2023/04/22 13:10:34;;;;;;;0.67;0.17;;;22.70;99.90;;;;;;4917712;29;20443;-70
2023/04/22 13:13:05;;;;;;;0.67;0.10;;;;;;;;;;4916888;29;20489;-69
2023/04/22 13:15:45;;;;;;;0.60;0.10;;;22.80;99.20;;;;;;4922458;29;20458;-71
2023/04/22 13:18:14;;;;;;;0.60;0.10;;;22.90;99.90;;;;;;4920046;29;20534;-71
2023/04/22 13:20:42;;;;;;;0.60;0.20;;;23.00;99.80;;;;;;4913873;29;20509;-71
2023/04/22 13:23:11;;;;;;;0.70;0.30;;;23.00;99.90;;;;;;4917043;29;20458;-77
2023/04/22 13:25:41;;;;;;;0.80;0.40;;;22.80;99.10;;;;;;4918164;29;20506;-75
2023/04/22 13:28:10;;;;;;;0.60;0.10;;;22.70;99.90;;;;;;4914345;29;20525;-77
2023/04/22 13:30:38;;;;;;;1.83;0.63;;;22.40;99.90;;;;;;4917283;29;20455;-72
2023/04/22 13:33:06;;;;;;;0.60;0.10;;;22.20;99.90;;;;;;4916395;29;20469;-69
2023/04/22 13:35:34;;;;;;;0.60;0.10;;;22.30;99.90;;;;;;4923898;29;20207;-73
2023/04/22 13:38:02;;;;;;;0.60;0.20;;;22.30;99.90;;;;;;4936053;29;20510;-74
2023/04/22 13:40:30;;;;;;;0.60;0.10;;;22.20;99.90;;;;;;4908150;29;20467;-70
2023/04/22 13:42:59;;;;;;;2.73;1.13;;;22.00;99.90;;;;;;4916304;29;20455;-70
2023/04/22 13:45:27;;;;;;;1.97;1.33;;;21.90;99.90;;;;;;4911347;29;20453;-70
2023/04/22 13:47:55;;;;;;;0.63;0.13;;;21.80;99.90;;;;;;4907992;29;20461;-70
2023/04/22 13:50:23;;;;;;;1.23;0.80;;;21.60;99.90;;;;;;4902029;29;20610;-71
2023/04/22 13:52:51;;;;;;;0.60;0.10;;;21.60;99.90;;;;;;4906660;29;20519;-70
2023/04/22 13:55:19;;;;;;;0.60;0.17;;;21.50;99.90;;;;;;4904130;29;20458;-71
2023/04/22 13:57:48;;;;;;;0.60;0.10;;;21.50;99.90;;;;;;4918620;29;20960;-70
2023/04/22 14:00:17;;;;;;;0.73;0.30;;;21.50;99.90;;;;;;4901491;29;20463;-70
2023/04/22 14:02:45;;;;;;;0.77;0.47;;;21.40;99.90;;;;;;4881090;29;1028011;-68
2023/04/22 14:05:13;;;;;;;1.93;0.57;;;21.20;99.90;;;;;;4920168;29;20296;-68
2023/04/22 14:07:41;;;;;;;0.60;0.17;;;21.10;99.90;;;;;;4912384;29;20473;-71
2023/04/22 14:10:10;;;;;;;0.60;0.17;;;21.20;99.90;;;;;;4918766;29;20818;-77
2023/04/22 14:12:39;;;;;;;0.60;0.10;;;21.10;99.90;;;;;;4918670;29;20489;-76
2023/04/22 14:15:09;;;;;;;0.60;0.20;;;21.10;99.90;;;;;;4923469;29;20469;-78
2023/04/22 14:17:39;;;;;;;2.33;0.90;;;21.10;99.90;;;;;;4923150;29;20430;-78
2023/04/22 14:20:09;;;;;;;0.60;0.20;;;21.10;99.90;;;;;;4922854;29;20454;-78
2023/04/22 14:22:38;;;;;;;0.60;0.30;;;21.00;99.90;;;;;;4921600;29;20472;-80
2023/04/22 14:25:07;;;;;;;0.87;0.30;;;20.90;99.90;;;;;;4923943;29;20549;-77
2023/04/22 14:27:35;;;;;;;1.70;1.60;;;;;;;;;;4927479;29;20437;-79
2023/04/22 14:30:04;;;;;;;0.60;0.20;;;;;;;;;;4924857;29;20458;-79
2023/04/22 14:32:32;;;;;;;0.60;0.10;;;20.90;99.90;;;;;;4922268;29;20536;-78
2023/04/22 14:35:02;;;;;;;0.60;0.20;;;20.80;99.90;;;;;;4937481;29;20449;-79
2023/04/22 14:37:30;;;;;;;2.00;0.63;;;20.80;99.90;;;;;;4926988;29;20463;-78
2023/04/22 14:39:59;;;;;;;1.43;0.90;;;20.70;99.90;;;;;;4925063;29;20963;-77
2023/04/22 14:42:27;;;;;;;0.60;0.20;;;20.50;99.90;;;;;;4931524;29;20540;-78
2023/04/22 14:44:55;;;;;;;0.70;0.23;;;20.40;99.90;;;;;;4945085;29;20441;-78
2023/04/22 14:47:23;;;;;;;2.30;1.23;;;20.40;99.90;;;;;;4945693;29;20451;-77
2023/04/22 14:49:51;;;;;;;0.60;0.20;;;20.10;99.90;;;;;;4946772;29;20448;-79
2023/04/22 14:52:20;;;;;;;0.60;0.20;;;20.10;99.90;;;;;;4941929;29;20484;-78
2023/04/22 14:54:48;;;;;;;0.60;0.20;;;20.10;99.90;;;;;;4926017;29;20491;-79
2023/04/22 14:57:18;;;;;;;0.60;0.10;;;20.10;99.90;;;;;;4926634;29;20508;-76
2023/04/22 14:59:47;;;;;;;0.70;0.50;;;20.10;99.90;;;;;;4923940;29;20982;-77
2023/04/22 15:02:15;;;;;;;0.60;0.20;;;20.10;99.90;;;;;;4924928;29;20487;-76
2023/04/22 15:04:44;;;;;;;0.60;0.10;;;20.10;99.90;;;;;;4911453;29;20449;-76
2023/04/22 15:07:12;;;;;;;0.93;0.30;;;20.20;99.90;;;;;;4921403;29;20452;-76
2023/04/22 15:09:41;;;;;;;0.60;0.10;;;20.20;99.90;;;;;;4911839;29;20455;-75
2023/04/22 15:12:09;;;;;;;0.60;0.23;;;20.20;99.90;;;;;;4940355;29;20998;-78
2023/04/22 15:14:38;;;;;;;0.60;0.20;;;20.10;99.90;;;;;;4943156;29;20487;-75
2023/04/22 15:17:06;;;;;;;0.60;0.10;;;20.10;99.90;;;;;;4930002;29;20472;-75
2023/04/22 15:19:34;;;;;;;0.60;0.10;;;20.10;99.90;;;;;;4910251;29;20462;-74
2023/04/22 15:22:02;;;;;;;0.60;0.10;;;20.10;99.90;;;;;;4929999;29;20574;-77
2023/04/22 15:24:34;;;;;;;0.60;0.20;;;;;;;;;;4936071;29;20441;-76
2023/04/22 15:27:04;;;;;;;0.60;0.10;;;20.30;99.90;;;;;;4930618;29;20437;-75
2023/04/22 15:29:32;;;;;;;0.67;0.27;;;20.30;99.90;;;;;;4921902;29;20451;-75
2023/04/22 15:32:00;;;;;;;0.60;0.20;;;20.20;99.90;;;;;;4932316;29;20472;-75
2023/04/22 15:34:32;;;;;;;0.60;0.10;;;20.10;99.90;;;;;;4931267;29;20480;-79
2023/04/22 15:37:00;;;;;;;0.60;0.10;;;20.20;99.90;;;;;;4933936;29;20456;-77
2023/04/22 15:39:29;;;;;;;0.60;0.20;;;20.20;99.90;;;;;;4927231;29;20500;-78
2023/04/22 15:41:57;;;;;;;0.60;0.20;;;20.30;99.90;;;;;;4939639;29;20482;-80
2023/04/22 15:44:26;;;;;;;0.60;0.10;;;20.40;99.90;;;;;;4933933;29;20463;-79
2023/04/22 15:46:56;;;;;;;0.60;0.20;;;20.40;99.90;;;;;;4924775;29;20441;-79
2023/04/22 15:49:25;;;;;;;1.07;0.57;;;;;;;;;;4937825;29;20521;-79
2023/04/22 15:51:53;;;;;;;0.60;0.10;;;20.20;99.90;;;;;;4927493;29;20480;-79
2023/04/22 15:54:22;;;;;;;0.70;0.20;;;20.20;99.90;;;;;;4922666;29;20486;-78
2023/04/22 15:56:51;;;;;;;0.67;0.30;;;20.10;99.90;;;;;;4928651;29;20437;-78
2023/04/22 15:59:19;;;;;;;0.60;0.20;;;20.00;99.90;;;;;;4942900;29;20480;-79
2023/04/22 16:01:49;;;;;;;0.60;0.10;;;;;;;;;;4925595;29;20483;-78
2023/04/22 16:04:19;;;;;;;0.60;0.10;;;19.80;99.90;;;;;;4929330;29;20441;-77
2023/04/22 16:06:47;;;;;;;0.70;0.40;;;19.80;99.90;;;;;;4928126;29;20504;-79
2023/04/22 16:09:18;;;;;;;0.90;0.50;;;19.80;99.90;;;;;;4921868;29;20468;-78
2023/04/22 16:11:46;;;;;;;0.60;0.10;;;;;;;;;;4921458;29;20473;-77
2023/04/22 16:16:41;;;;;;;0.80;0.20;;;19.70;99.90;;;;;;4955657;23;20492;-79
2023/04/22 16:19:11;;;;;;;0.70;0.20;;;19.70;99.90;;;;;;4933492;29;20550;-81
2023/04/22 16:21:40;;;;;;;1.00;0.50;;;19.60;99.90;;;;;;4939628;29;20459;-80
2023/04/22 16:24:08;;;;;;;0.60;0.20;;;19.60;99.90;;;;;;4938679;29;20539;-80
2023/04/22 16:26:36;;;;;;;0.80;0.60;;;19.50;99.90;;;;;;4920953;29;20476;-79
2023/04/22 16:29:04;;;;;;;0.60;0.20;;;19.40;99.90;;;;;;4920324;29;20483;-79
2023/04/22 16:31:32;;;;;;;0.90;0.33;;;19.40;99.90;;;;;;4920893;29;20452;-79
2023/04/22 16:34:00;;;;;;;0.60;0.20;;;19.40;99.90;;;;;;4920333;29;20527;-80
2023/04/22 16:36:31;;;;;;;1.47;1.37;;;19.40;99.90;;;;;;4923779;29;20472;-78
2023/04/22 16:38:59;;;;;;;0.70;0.30;;;19.50;99.90;;;;;;4923400;29;20441;-80
2023/04/22 16:41:27;;;;;;;0.90;0.30;;;19.40;99.90;;;;;;4921750;29;20959;-79
2023/04/22 16:43:55;;;;;;;1.37;0.67;;;19.40;99.90;;;;;;4920761;29;21047;-79
2023/04/22 16:46:23;;;;;;;0.60;0.10;;;19.40;99.90;;;;;;4919698;29;20476;-80
2023/04/22 16:48:51;;;;;;;0.67;0.30;;;19.40;99.90;;;;;;4920088;29;20457;-80
2023/04/22 16:51:19;;;;;;;0.60;0.20;;;19.40;99.90;;;;;;4919999;29;20449;-80
2023/04/22 16:53:48;;;;;;;0.60;0.20;;;19.30;99.90;;;;;;4919701;29;20451;-80
2023/04/22 16:56:16;;;;;;;0.60;0.10;;;19.30;99.90;;;;;;4920288;29;20476;-79
2023/04/22 16:58:44;;;;;;;0.60;0.20;;;19.10;99.90;;;;;;4922389;29;20456;-80
2023/04/22 17:01:12;;;;;;;2.63;0.80;;;19.10;99.90;;;;;;4919988;29;20952;-80
2023/04/22 17:03:40;;;;;;;0.60;0.20;;;19.00;99.90;;;;;;4919834;29;20516;-80
2023/04/22 17:06:08;;;;;;;1.00;0.30;;;19.00;99.90;;;;;;4920028;29;20560;-79